createdAt,value
2022-10-22T00:01:45.548Z,15.75
2022-10-22T00:04:11.846Z,15.76
2022-10-22T00:06:38.210Z,15.79
2022-10-22T00:09:04.633Z,15.79
2022-10-22T00:11:31.113Z,15.82
2022-10-22T00:13:58.004Z,15.83
2022-10-22T00:16:26.965Z,15.85
2022-10-22T00:18:53.320Z,15.86
2022-10-22T00:21:19.681Z,15.83
2022-10-22T00:23:47.165Z,15.83
2022-10-22T00:26:13.532Z,15.81
2022-10-22T00:28:39.939Z,15.79
2022-10-22T00:31:07.111Z,15.76
2022-10-22T00:33:34.072Z,15.72
2022-10-22T00:36:00.461Z,15.70
2022-10-22T00:38:26.849Z,15.71
2022-10-22T00:40:53.282Z,15.69
2022-10-22T00:43:20.101Z,15.69
2022-10-22T00:45:47.275Z,15.69
2022-10-22T00:48:18.673Z,15.66
2022-10-22T00:50:56.397Z,15.64
2022-10-22T00:53:29.037Z,15.60
2022-10-22T00:55:55.690Z,15.57
2022-10-22T00:58:27.772Z,15.54
2022-10-22T01:00:55.469Z,15.56
2022-10-22T01:03:22.441Z,15.54
2022-10-22T01:06:04.900Z,15.54
2022-10-22T01:08:46.406Z,15.52
2022-10-22T01:11:26.944Z,15.50
2022-10-22T01:13:56.306Z,15.47
2022-10-22T01:16:59.286Z,15.48
2022-10-22T01:19:56.635Z,15.48
2022-10-22T01:23:00.102Z,15.47
2022-10-22T01:25:36.969Z,15.46
2022-10-22T01:28:31.253Z,15.47
2022-10-22T01:31:00.676Z,15.46
2022-10-22T01:33:29.266Z,15.51
2022-10-22T01:35:57.384Z,15.50
2022-10-22T01:38:25.017Z,15.45
2022-10-22T01:40:51.781Z,15.53
2022-10-22T01:43:18.502Z,15.56
2022-10-22T01:45:50.204Z,15.57
2022-10-22T01:48:45.453Z,15.56
2022-10-22T01:51:35.104Z,15.57
2022-10-22T01:54:21.223Z,15.55
2022-10-22T01:57:16.761Z,15.56
2022-10-22T02:00:01.210Z,15.51
2022-10-22T02:02:40.484Z,15.46
2022-10-22T02:05:06.891Z,15.44
2022-10-22T02:07:41.690Z,15.44
2022-10-22T02:10:10.548Z,15.41
2022-10-22T02:12:39.118Z,15.37
2022-10-22T02:15:07.899Z,15.36
2022-10-22T02:17:36.857Z,15.36
2022-10-22T02:20:10.078Z,15.38
2022-10-22T02:22:37.121Z,15.37
2022-10-22T02:25:07.539Z,15.32
2022-10-22T02:28:04.774Z,15.37
2022-10-22T02:30:33.547Z,15.37
2022-10-22T02:33:06.697Z,15.39
2022-10-22T02:35:34.060Z,15.41
2022-10-22T02:38:01.098Z,15.41
2022-10-22T02:40:30.454Z,15.39
2022-10-22T02:42:56.832Z,15.37
2022-10-22T02:45:23.530Z,15.36
2022-10-22T02:47:50.010Z,15.35
2022-10-22T02:50:16.658Z,15.32
2022-10-22T02:52:43.411Z,15.28
2022-10-22T02:55:10.100Z,15.27
2022-10-22T02:57:36.428Z,15.27
2022-10-22T03:00:05.193Z,15.23
2022-10-22T03:02:31.588Z,15.24
2022-10-22T03:04:57.957Z,15.27
2022-10-22T03:07:24.370Z,15.27
2022-10-22T03:09:51.109Z,15.26
2022-10-22T03:12:17.498Z,15.26
2022-10-22T03:14:43.849Z,15.26
2022-10-22T03:17:13.081Z,15.21
2022-10-22T03:19:39.405Z,15.20
2022-10-22T03:22:10.004Z,15.20
2022-10-22T03:24:39.713Z,15.21
2022-10-22T03:27:06.158Z,15.20
2022-10-22T03:29:36.092Z,15.13
2022-10-22T03:32:02.400Z,15.13
2022-10-22T03:34:28.732Z,15.11
2022-10-22T03:36:57.530Z,15.09
2022-10-22T03:39:24.114Z,15.06
2022-10-22T03:41:51.458Z,15.05
2022-10-22T03:44:18.115Z,15.05
2022-10-22T03:46:44.907Z,15.05
2022-10-22T03:49:11.282Z,15.02
2022-10-22T03:51:37.644Z,15.02
2022-10-22T03:54:04.241Z,15.03
2022-10-22T03:56:30.731Z,15.02
2022-10-22T03:58:58.439Z,14.99
2022-10-22T04:01:25.375Z,14.97
2022-10-22T04:03:52.045Z,14.97
2022-10-22T04:06:18.426Z,14.95
2022-10-22T04:08:45.993Z,14.92
2022-10-22T04:11:14.133Z,14.88
2022-10-22T04:13:40.776Z,14.85
2022-10-22T04:16:12.797Z,14.84
2022-10-22T04:18:39.925Z,14.82
2022-10-22T04:21:08.242Z,14.77
2022-10-22T04:23:34.675Z,14.77
2022-10-22T04:26:03.182Z,14.78
2022-10-22T04:28:29.573Z,14.78
2022-10-22T04:30:55.910Z,14.81
2022-10-22T04:33:22.654Z,14.83
2022-10-22T04:35:49.012Z,14.83
2022-10-22T04:38:15.723Z,14.84
2022-10-22T04:40:42.405Z,14.84
2022-10-22T04:43:11.343Z,14.81
2022-10-22T04:45:37.672Z,14.80
2022-10-22T04:48:04.178Z,14.83
2022-10-22T04:50:30.860Z,14.83
2022-10-22T04:52:57.177Z,14.86
2022-10-22T04:55:23.575Z,14.87
2022-10-22T04:57:49.941Z,14.88
2022-10-22T05:00:17.826Z,14.89
2022-10-22T05:02:49.031Z,14.86
2022-10-22T05:05:15.437Z,14.85
2022-10-22T05:07:42.175Z,14.85
2022-10-22T05:10:09.262Z,14.85
2022-10-22T05:12:35.728Z,14.83
2022-10-22T05:15:02.115Z,14.83
2022-10-22T05:17:28.454Z,14.82
2022-10-22T05:19:57.174Z,14.81
2022-10-22T05:22:23.476Z,14.79
2022-10-22T05:24:49.789Z,14.77
2022-10-22T05:27:16.150Z,14.74
2022-10-22T05:29:42.540Z,14.71
2022-10-22T05:32:08.893Z,14.69
2022-10-22T05:34:36.123Z,14.67
2022-10-22T05:37:02.526Z,14.69
2022-10-22T05:39:29.003Z,14.67
2022-10-22T05:41:55.403Z,14.66
2022-10-22T05:44:21.741Z,14.64
2022-10-22T05:46:48.051Z,14.62
2022-10-22T05:49:15.478Z,14.63
2022-10-22T05:51:42.028Z,14.63
2022-10-22T05:54:11.211Z,14.61
2022-10-22T05:56:38.352Z,14.59
2022-10-22T05:59:04.927Z,14.58
2022-10-22T06:01:33.049Z,14.59
2022-10-22T06:04:01.659Z,14.59
2022-10-22T06:06:37.172Z,14.61
2022-10-22T06:09:18.320Z,14.59
2022-10-22T06:11:45.933Z,14.57
2022-10-22T06:14:12.683Z,14.57
2022-10-22T06:16:39.489Z,14.55
2022-10-22T06:19:06.225Z,14.58
2022-10-22T06:21:33.083Z,14.56
2022-10-22T06:24:00.779Z,14.55
2022-10-22T06:26:27.114Z,14.56
2022-10-22T06:28:55.673Z,14.56
2022-10-22T06:31:26.336Z,14.58
2022-10-22T06:33:52.756Z,14.62
2022-10-22T06:36:21.690Z,14.65
2022-10-22T06:38:52.181Z,14.65
2022-10-22T06:41:18.868Z,14.67
2022-10-22T06:43:48.728Z,14.72
2022-10-22T06:46:19.993Z,14.74
2022-10-22T06:49:00.244Z,14.80
2022-10-22T06:51:30.204Z,14.85
2022-10-22T06:53:58.454Z,14.88
2022-10-22T06:56:30.238Z,14.89
2022-10-22T06:58:57.974Z,14.91
2022-10-22T07:01:30.294Z,14.92
2022-10-22T07:03:56.798Z,14.94
2022-10-22T07:06:24.297Z,14.96
2022-10-22T07:08:51.285Z,15.01
2022-10-22T07:11:20.704Z,15.07
2022-10-22T07:13:47.752Z,15.11
2022-10-22T07:16:14.545Z,15.14
2022-10-22T07:18:41.908Z,15.17
2022-10-22T07:21:09.508Z,15.16
2022-10-22T07:23:36.155Z,15.21
2022-10-22T07:26:02.921Z,15.23
2022-10-22T07:28:30.527Z,15.26
2022-10-22T07:30:56.883Z,15.28
2022-10-22T07:33:23.194Z,15.28
2022-10-22T07:35:49.536Z,15.33
2022-10-22T07:38:15.851Z,15.35
2022-10-22T07:40:42.184Z,15.42
2022-10-22T07:43:08.547Z,15.50
2022-10-22T07:45:34.977Z,15.57
2022-10-22T07:48:02.202Z,15.69
2022-10-22T07:50:28.545Z,15.80
2022-10-22T07:52:57.435Z,15.87
2022-10-22T07:55:27.859Z,15.95
2022-10-22T07:57:54.308Z,16.03
2022-10-22T08:00:23.221Z,16.14
2022-10-22T08:02:52.048Z,16.22
2022-10-22T08:05:18.469Z,16.29
2022-10-22T08:07:44.962Z,16.32
2022-10-22T08:10:12.406Z,16.35
2022-10-22T08:12:39.677Z,16.33
2022-10-22T08:15:06.962Z,16.35
2022-10-22T08:17:33.334Z,16.33
2022-10-22T08:19:59.652Z,16.28
2022-10-22T08:22:25.974Z,16.23
2022-10-22T08:24:59.057Z,16.19
2022-10-22T08:27:25.422Z,16.21
2022-10-22T08:29:51.845Z,16.24
2022-10-22T08:32:22.074Z,16.24
2022-10-22T08:34:48.492Z,16.23
2022-10-22T08:37:16.968Z,16.25
2022-10-22T08:39:44.248Z,16.29
2022-10-22T08:42:32.100Z,16.34
2022-10-22T08:45:26.230Z,16.35
2022-10-22T08:48:01.466Z,16.36
2022-10-22T08:50:37.542Z,16.37
2022-10-22T08:53:11.631Z,16.37
2022-10-22T08:55:38.735Z,16.37
2022-10-22T08:58:29.680Z,16.41
2022-10-22T09:01:04.186Z,16.46
2022-10-22T09:03:45.774Z,16.42
2022-10-22T09:06:16.778Z,16.46
2022-10-22T09:08:45.858Z,16.47
2022-10-22T09:11:14.630Z,16.47
2022-10-22T09:13:43.553Z,16.49
2022-10-22T09:16:31.309Z,16.47
2022-10-22T09:19:08.358Z,16.52
2022-10-22T09:21:57.063Z,16.57
2022-10-22T09:24:45.485Z,16.60
2022-10-22T09:27:15.904Z,16.64
2022-10-22T09:29:45.667Z,16.67
2022-10-22T09:32:12.561Z,16.73
2022-10-22T09:34:39.140Z,16.75
2022-10-22T09:37:08.909Z,16.79
2022-10-22T09:39:39.501Z,16.85
2022-10-22T09:42:09.985Z,16.92
2022-10-22T09:44:37.669Z,17.00
2022-10-22T09:47:42.616Z,17.04
2022-10-22T09:50:31.038Z,17.12
2022-10-22T09:53:14.928Z,17.44
2022-10-22T09:55:42.307Z,17.85
2022-10-22T09:58:13.023Z,18.47
2022-10-22T10:00:41.755Z,19.36
2022-10-22T10:03:17.234Z,20.13
2022-10-22T10:05:48.228Z,20.78
2022-10-22T10:08:16.419Z,20.81
2022-10-22T10:10:51.624Z,20.61
2022-10-22T10:13:38.865Z,20.51
2022-10-22T10:16:31.798Z,20.43
2022-10-22T10:19:28.287Z,20.00
2022-10-22T10:22:05.293Z,19.79
2022-10-22T10:24:58.442Z,19.48
2022-10-22T10:27:42.713Z,19.29
2022-10-22T10:30:17.304Z,19.15
2022-10-22T10:32:55.962Z,18.98
2022-10-22T10:35:35.452Z,18.84
2022-10-22T10:38:29.576Z,18.76
2022-10-22T10:41:18.619Z,18.71
2022-10-22T10:44:13.327Z,18.80
2022-10-22T10:47:00.051Z,19.16
2022-10-22T10:49:30.111Z,19.39
2022-10-22T10:52:20.520Z,19.55
2022-10-22T10:55:02.671Z,19.55
2022-10-22T10:57:44.149Z,19.49
2022-10-22T11:00:20.508Z,19.43
2022-10-22T11:03:05.647Z,19.27
2022-10-22T11:05:48.723Z,19.23
2022-10-22T11:08:31.719Z,19.31
2022-10-22T11:11:04.159Z,19.43
2022-10-22T11:13:40.204Z,19.61
2022-10-22T11:16:16.730Z,20.04
2022-10-22T11:19:06.020Z,20.57
2022-10-22T11:21:50.231Z,21.12
2022-10-22T11:24:30.265Z,21.28
2022-10-22T11:27:20.089Z,21.38
2022-10-22T11:32:19.897Z,22.15
2022-10-22T11:34:56.499Z,22.46
2022-10-22T11:37:26.360Z,22.59
2022-10-22T11:39:59.617Z,22.47
2022-10-22T11:42:35.998Z,22.16
2022-10-22T11:45:06.722Z,21.75
2022-10-22T11:47:35.909Z,21.50
2022-10-22T11:50:16.951Z,21.25
2022-10-22T11:52:54.527Z,21.01
2022-10-22T11:55:48.716Z,20.72
2022-10-22T11:58:33.236Z,20.69
2022-10-22T12:01:02.614Z,20.61
2022-10-22T12:03:31.918Z,20.82
2022-10-22T12:06:15.260Z,20.90
2022-10-22T12:08:43.627Z,20.92
2022-10-22T12:11:09.990Z,20.98
2022-10-22T12:14:01.004Z,20.84
2022-10-22T12:16:54.593Z,20.73
2022-10-22T12:19:22.420Z,20.58
2022-10-22T12:21:53.741Z,20.45
2022-10-22T12:24:22.671Z,20.31
2022-10-22T12:26:52.541Z,20.27
2022-10-22T12:29:26.448Z,20.31
2022-10-22T12:31:52.921Z,20.31
2022-10-22T12:34:23.610Z,20.38
2022-10-22T12:36:52.836Z,20.55
2022-10-22T12:39:26.393Z,20.73
2022-10-22T12:41:54.073Z,20.91
2022-10-22T12:44:20.513Z,21.08
2022-10-22T12:46:51.786Z,21.20
2022-10-22T12:49:25.647Z,21.34
2022-10-22T12:51:52.029Z,21.51
2022-10-22T12:54:28.806Z,21.48
2022-10-22T12:56:56.290Z,21.33
2022-10-22T12:59:26.890Z,21.14
2022-10-22T13:01:54.421Z,21.00
2022-10-22T13:04:27.032Z,20.91
2022-10-22T13:07:05.373Z,20.90
2022-10-22T13:09:41.790Z,20.96
2022-10-22T13:12:16.513Z,20.97
2022-10-22T13:14:45.421Z,20.99
2022-10-22T13:17:18.888Z,20.96
2022-10-22T13:19:54.487Z,20.90
2022-10-22T13:22:31.159Z,20.80
2022-10-22T13:25:22.251Z,20.72
2022-10-22T13:28:03.968Z,20.69
2022-10-22T13:30:33.498Z,20.67
2022-10-22T13:33:01.067Z,20.60
2022-10-22T13:35:32.420Z,20.60
2022-10-22T13:37:59.561Z,20.57
2022-10-22T13:40:26.523Z,20.67
2022-10-22T13:42:53.194Z,20.74
2022-10-22T13:45:19.862Z,20.78
2022-10-22T13:47:50.840Z,20.84
2022-10-22T13:50:19.479Z,20.81
2022-10-22T13:52:57.548Z,20.80
2022-10-22T13:55:30.557Z,20.81
2022-10-22T13:58:00.432Z,20.78
2022-10-22T14:00:26.891Z,20.75
2022-10-22T14:02:55.393Z,20.72
2022-10-22T14:05:21.728Z,20.67
2022-10-22T14:07:48.709Z,20.66
2022-10-22T14:10:22.529Z,20.60
2022-10-22T14:12:52.541Z,20.48
2022-10-22T14:15:25.453Z,20.41
2022-10-22T14:17:59.596Z,20.35
2022-10-22T14:20:30.088Z,20.28
2022-10-22T14:23:01.126Z,20.20
2022-10-22T14:25:27.855Z,20.14
2022-10-22T14:27:54.694Z,20.08
2022-10-22T14:30:26.062Z,20.03
2022-10-22T14:32:52.625Z,20.03
2022-10-22T14:35:21.742Z,20.07
2022-10-22T14:37:48.600Z,20.08
2022-10-22T14:40:18.447Z,20.08
2022-10-22T14:42:47.374Z,20.02
2022-10-22T14:45:20.874Z,19.96
2022-10-22T14:47:56.231Z,19.90
2022-10-22T14:50:24.359Z,19.91
2022-10-22T14:52:51.289Z,19.89
2022-10-22T14:55:19.790Z,19.86
2022-10-22T14:57:46.508Z,19.86
2022-10-22T15:00:16.016Z,19.84
2022-10-22T15:02:42.929Z,19.82
2022-10-22T15:05:10.412Z,19.76
2022-10-22T15:07:37.613Z,19.74
2022-10-22T15:10:05.537Z,19.70
2022-10-22T15:12:32.074Z,19.71
2022-10-22T15:14:58.425Z,19.68
2022-10-22T15:17:25.088Z,19.67
2022-10-22T15:19:53.004Z,19.62
2022-10-22T15:22:20.494Z,19.62
2022-10-22T15:24:48.420Z,19.57
2022-10-22T15:27:15.317Z,19.55
2022-10-22T15:29:42.668Z,19.52
2022-10-22T15:32:12.941Z,19.46
2022-10-22T15:34:40.473Z,19.45
2022-10-22T15:37:10.205Z,19.42
2022-10-22T15:39:39.676Z,19.35
2022-10-22T15:42:06.356Z,19.26
2022-10-22T15:44:33.088Z,19.22
2022-10-22T15:47:00.426Z,19.18
2022-10-22T15:49:28.183Z,19.17
2022-10-22T15:51:55.456Z,19.14
2022-10-22T15:54:26.273Z,19.11
2022-10-22T15:56:52.569Z,19.07
2022-10-22T15:59:19.016Z,19.05
2022-10-22T16:01:45.490Z,19.00
2022-10-22T16:04:11.948Z,18.98
2022-10-22T16:06:41.420Z,18.95
2022-10-22T16:09:15.573Z,18.92
2022-10-22T16:11:42.796Z,18.88
2022-10-22T16:14:12.077Z,18.85
2022-10-22T16:16:42.562Z,18.80
2022-10-22T16:19:11.164Z,18.75
2022-10-22T16:21:37.943Z,18.69
2022-10-22T16:24:06.336Z,18.65
2022-10-22T16:26:33.292Z,18.61
2022-10-22T16:28:59.834Z,18.57
2022-10-22T16:31:26.183Z,18.50
2022-10-22T16:33:52.604Z,18.41
2022-10-22T16:36:20.707Z,18.37
2022-10-22T16:38:55.928Z,18.33
2022-10-22T16:41:24.523Z,18.26
2022-10-22T16:43:54.888Z,18.20
2022-10-22T16:46:22.500Z,18.14
2022-10-22T16:48:51.373Z,18.05
2022-10-22T16:51:20.709Z,18.05
2022-10-22T16:53:47.465Z,17.98
2022-10-22T16:56:16.090Z,17.95
2022-10-22T16:58:48.064Z,17.90
2022-10-22T17:01:18.006Z,17.83
2022-10-22T17:03:44.823Z,17.79
2022-10-22T17:06:13.206Z,17.73
2022-10-22T17:08:40.814Z,17.64
2022-10-22T17:11:12.971Z,17.58
2022-10-22T17:13:42.149Z,17.49
2022-10-22T17:16:11.550Z,17.44
2022-10-22T17:18:40.100Z,17.38
2022-10-22T17:21:08.554Z,17.30
2022-10-22T17:23:37.293Z,17.22
2022-10-22T17:26:09.162Z,17.14
2022-10-22T17:28:36.378Z,17.09
2022-10-22T17:31:14.973Z,17.00
2022-10-22T17:33:41.278Z,16.92
2022-10-22T17:36:12.906Z,16.85
2022-10-22T17:38:40.999Z,16.75
2022-10-22T17:41:11.340Z,16.69
2022-10-22T17:43:40.274Z,16.67
2022-10-22T17:46:08.917Z,16.63
2022-10-22T17:48:35.272Z,16.58
2022-10-22T17:51:06.157Z,16.51
2022-10-22T17:53:32.677Z,16.45
2022-10-22T17:56:01.069Z,16.41
2022-10-22T17:58:29.692Z,16.36
2022-10-22T18:00:56.626Z,16.29
2022-10-22T18:03:23.149Z,16.28
2022-10-22T18:05:49.449Z,16.27
2022-10-22T18:08:16.911Z,16.22
2022-10-22T18:10:43.304Z,16.17
2022-10-22T18:13:09.746Z,16.14
2022-10-22T18:15:36.431Z,16.11
2022-10-22T18:18:03.913Z,16.05
2022-10-22T18:20:30.643Z,16.00
2022-10-22T18:22:56.968Z,15.97
2022-10-22T18:25:23.329Z,15.94
2022-10-22T18:27:49.775Z,15.89
2022-10-22T18:30:16.307Z,15.90
2022-10-22T18:32:42.628Z,15.89
2022-10-22T18:35:09.116Z,15.88
2022-10-22T18:37:36.376Z,15.85
2022-10-22T18:40:03.438Z,15.87
2022-10-22T18:42:32.813Z,15.82
2022-10-22T18:45:00.905Z,15.76
2022-10-22T18:47:27.237Z,15.75
2022-10-22T18:49:53.578Z,15.73
2022-10-22T18:52:19.912Z,15.71
2022-10-22T18:54:46.312Z,15.71
2022-10-22T18:57:12.670Z,15.67
2022-10-22T18:59:38.999Z,15.67
2022-10-22T19:02:05.410Z,15.66
2022-10-22T19:04:36.639Z,15.64
2022-10-22T19:07:04.492Z,15.56
2022-10-22T19:09:34.002Z,15.52
2022-10-22T19:12:00.948Z,15.52
2022-10-22T19:14:27.567Z,15.51
2022-10-22T19:16:53.884Z,15.47
2022-10-22T19:19:21.462Z,15.42
2022-10-22T19:21:48.667Z,15.39
2022-10-22T19:24:16.861Z,15.37
2022-10-22T19:26:43.708Z,15.36
2022-10-22T19:29:10.940Z,15.32
2022-10-22T19:31:37.838Z,15.29
2022-10-22T19:34:04.636Z,15.25
2022-10-22T19:36:32.595Z,15.19
2022-10-22T19:39:00.045Z,15.15
2022-10-22T19:41:28.662Z,15.10
2022-10-22T19:43:56.342Z,15.05
2022-10-22T19:46:25.569Z,15.04
2022-10-22T19:48:52.710Z,15.03
2022-10-22T19:51:22.458Z,15.03
2022-10-22T19:53:49.770Z,15.04
2022-10-22T19:56:19.669Z,15.02
2022-10-22T19:58:46.346Z,15.00
2022-10-22T20:01:14.863Z,14.98
2022-10-22T20:03:41.578Z,14.94
2022-10-22T20:06:09.715Z,14.91
2022-10-22T20:08:37.875Z,14.90
2022-10-22T20:11:06.893Z,14.88
2022-10-22T20:16:05.068Z,14.85
2022-10-22T20:18:34.018Z,14.85
2022-10-22T20:21:08.520Z,14.83
2022-10-22T20:23:35.244Z,14.82
2022-10-22T20:26:01.706Z,14.82
2022-10-22T20:28:28.157Z,14.83
2022-10-22T20:30:54.498Z,14.81
2022-10-22T20:33:20.813Z,14.80
2022-10-22T20:35:57.966Z,14.81
2022-10-22T20:38:24.485Z,14.80
2022-10-22T20:41:05.752Z,14.81
2022-10-22T20:43:32.986Z,14.79
2022-10-22T20:45:59.592Z,14.74
2022-10-22T20:48:31.045Z,14.75
2022-10-22T20:51:01.567Z,14.73
2022-10-22T20:53:30.581Z,14.71
2022-10-22T20:55:58.867Z,14.68
2022-10-22T20:58:27.047Z,14.67
2022-10-22T21:00:55.030Z,14.66
2022-10-22T21:03:21.706Z,14.65
2022-10-22T21:05:48.187Z,14.66
2022-10-22T21:08:17.781Z,14.62
2022-10-22T21:10:49.092Z,14.64
2022-10-22T21:13:17.057Z,14.62
2022-10-22T21:15:43.415Z,14.59
2022-10-22T21:18:09.741Z,14.58
2022-10-22T21:20:36.617Z,14.60
2022-10-22T21:23:03.053Z,14.60
2022-10-22T21:25:29.377Z,14.61
2022-10-22T21:27:55.840Z,14.63
2022-10-22T21:30:22.209Z,14.63
2022-10-22T21:32:48.535Z,14.60
2022-10-22T21:35:15.004Z,14.61
2022-10-22T21:37:41.576Z,14.63
2022-10-22T21:40:09.019Z,14.62
2022-10-22T21:42:35.424Z,14.61
2022-10-22T21:45:01.845Z,14.60
2022-10-22T21:47:28.326Z,14.58
2022-10-22T21:49:54.769Z,14.60
2022-10-22T21:52:23.475Z,14.59
2022-10-22T21:54:49.812Z,14.59
2022-10-22T21:57:16.143Z,14.60
2022-10-22T21:59:42.587Z,14.62
2022-10-22T22:02:09.018Z,14.58
2022-10-22T22:04:35.402Z,14.57
2022-10-22T22:07:01.808Z,14.55
2022-10-22T22:09:28.452Z,14.54
2022-10-22T22:11:57.482Z,14.51
2022-10-22T22:14:23.794Z,14.48
2022-10-22T22:16:55.404Z,14.45
2022-10-22T22:19:21.769Z,14.45
2022-10-22T22:21:48.206Z,14.47
2022-10-22T22:24:14.541Z,14.49
2022-10-22T22:26:41.710Z,14.49
2022-10-22T22:29:08.074Z,14.50
2022-10-22T22:31:35.658Z,14.49
2022-10-22T22:34:04.666Z,14.49
2022-10-22T22:36:39.289Z,14.48
2022-10-22T22:39:07.565Z,14.47
2022-10-22T22:41:34.443Z,14.47
2022-10-22T22:44:00.796Z,14.45
2022-10-22T22:46:27.242Z,14.43
2022-10-22T22:48:53.789Z,14.43
2022-10-22T22:51:20.695Z,14.45
2022-10-22T22:53:47.248Z,14.45
2022-10-22T22:56:18.161Z,14.46
2022-10-22T22:58:44.697Z,14.45
2022-10-22T23:01:34.223Z,14.45
2022-10-22T23:04:06.741Z,14.43
2022-10-22T23:06:36.233Z,14.41
2022-10-22T23:09:06.442Z,14.38
2022-10-22T23:11:33.151Z,14.35
2022-10-22T23:14:02.357Z,14.35
2022-10-22T23:16:31.854Z,14.34
2022-10-22T23:18:58.997Z,14.35
2022-10-22T23:21:30.799Z,14.36
2022-10-22T23:24:03.417Z,14.35
2022-10-22T23:26:33.308Z,14.30
2022-10-22T23:29:05.013Z,14.32
2022-10-22T23:31:31.703Z,14.31
2022-10-22T23:33:58.569Z,14.29
2022-10-22T23:36:25.164Z,14.27
2022-10-22T23:38:51.509Z,14.26
2022-10-22T23:41:18.064Z,14.27
2022-10-22T23:43:44.564Z,14.28
2022-10-22T23:46:12.460Z,14.26
2022-10-22T23:48:39.644Z,14.23
2022-10-22T23:51:15.004Z,14.21
2022-10-22T23:53:42.400Z,14.19
2022-10-22T23:56:15.257Z,14.17
2022-10-22T23:58:42.299Z,14.12
